sensor_id;sensor_type;location;lat;lon;timestamp;P1;durP1;ratioP1;P2;durP2;ratioP2
66946;SDS011;53853;51.982;5.928;2022-12-18T00:01:56;45.13;;;24.90;;
66946;SDS011;53853;51.982;5.928;2022-12-18T00:04:27;48.25;;;29.33;;
66946;SDS011;53853;51.982;5.928;2022-12-18T00:07:00;50.53;;;28.67;;
66946;SDS011;53853;51.982;5.928;2022-12-18T00:09:30;49.92;;;28.70;;
66946;SDS011;53853;51.982;5.928;2022-12-18T00:12:00;49.17;;;28.42;;
66946;SDS011;53853;51.982;5.928;2022-12-18T00:14:30;48.90;;;26.48;;
66946;SDS011;53853;51.982;5.928;2022-12-18T00:17:00;44.83;;;27.42;;
66946;SDS011;53853;51.982;5.928;2022-12-18T00:19:29;49.83;;;28.35;;
66946;SDS011;53853;51.982;5.928;2022-12-18T00:22:02;48.85;;;28.38;;
66946;SDS011;53853;51.982;5.928;2022-12-18T00:24:32;46.80;;;27.90;;
66946;SDS011;53853;51.982;5.928;2022-12-18T00:27:02;45.75;;;27.08;;
66946;SDS011;53853;51.982;5.928;2022-12-18T00:29:32;49.95;;;29.02;;
66946;SDS011;53853;51.982;5.928;2022-12-18T00:32:02;47.90;;;30.67;;
66946;SDS011;53853;51.982;5.928;2022-12-18T00:34:32;49.80;;;27.60;;
66946;SDS011;53853;51.982;5.928;2022-12-18T00:37:05;50.80;;;29.02;;
66946;SDS011;53853;51.982;5.928;2022-12-18T00:39:35;47.83;;;29.00;;
66946;SDS011;53853;51.982;5.928;2022-12-18T00:42:05;44.97;;;25.33;;
66946;SDS011;53853;51.982;5.928;2022-12-18T00:44:48;46.97;;;28.65;;
66946;SDS011;53853;51.982;5.928;2022-12-18T00:47:18;39.70;;;23.98;;
66946;SDS011;53853;51.982;5.928;2022-12-18T00:49:48;42.90;;;25.58;;
66946;SDS011;53853;51.982;5.928;2022-12-18T00:52:21;44.53;;;25.67;;
66946;SDS011;53853;51.982;5.928;2022-12-18T00:54:51;45.22;;;26.42;;
66946;SDS011;53853;51.982;5.928;2022-12-18T00:57:21;45.05;;;26.05;;
66946;SDS011;53853;51.982;5.928;2022-12-18T00:59:51;42.13;;;25.00;;
66946;SDS011;53853;51.982;5.928;2022-12-18T01:02:21;45.83;;;27.48;;
66946;SDS011;53853;51.982;5.928;2022-12-18T01:04:51;44.08;;;25.48;;
66946;SDS011;53853;51.982;5.928;2022-12-18T01:07:23;38.75;;;24.15;;
66946;SDS011;53853;51.982;5.928;2022-12-18T01:09:54;42.97;;;23.42;;
66946;SDS011;53853;51.982;5.928;2022-12-18T01:12:24;41.88;;;24.67;;
66946;SDS011;53853;51.982;5.928;2022-12-18T01:14:53;39.50;;;24.42;;
66946;SDS011;53853;51.982;5.928;2022-12-18T01:17:23;39.33;;;25.20;;
66946;SDS011;53853;51.982;5.928;2022-12-18T01:19:53;40.20;;;24.80;;
66946;SDS011;53853;51.982;5.928;2022-12-18T01:22:26;42.20;;;25.40;;
66946;SDS011;53853;51.982;5.928;2022-12-18T01:24:56;40.95;;;24.48;;
66946;SDS011;53853;51.982;5.928;2022-12-18T01:27:26;38.15;;;24.50;;
66946;SDS011;53853;51.982;5.928;2022-12-18T01:29:56;44.03;;;26.27;;
66946;SDS011;53853;51.982;5.928;2022-12-18T01:32:26;42.83;;;25.75;;
66946;SDS011;53853;51.982;5.928;2022-12-18T01:34:58;38.70;;;24.58;;
66946;SDS011;53853;51.982;5.928;2022-12-18T01:37:30;42.20;;;24.73;;
66946;SDS011;53853;51.982;5.928;2022-12-18T01:40:01;38.15;;;23.70;;
66946;SDS011;53853;51.982;5.928;2022-12-18T01:42:31;40.25;;;25.42;;
66946;SDS011;53853;51.982;5.928;2022-12-18T01:45:05;40.60;;;25.63;;
66946;SDS011;53853;51.982;5.928;2022-12-18T01:47:51;40.75;;;26.38;;
66946;SDS011;53853;51.982;5.928;2022-12-18T01:50:24;41.70;;;24.02;;
66946;SDS011;53853;51.982;5.928;2022-12-18T01:53:03;39.95;;;25.63;;
66946;SDS011;53853;51.982;5.928;2022-12-18T01:55:36;44.92;;;26.20;;
66946;SDS011;53853;51.982;5.928;2022-12-18T01:58:10;37.35;;;23.33;;
66946;SDS011;53853;51.982;5.928;2022-12-18T02:00:41;41.13;;;23.92;;
66946;SDS011;53853;51.982;5.928;2022-12-18T02:03:11;39.90;;;23.75;;
66946;SDS011;53853;51.982;5.928;2022-12-18T02:05:44;40.03;;;25.10;;
66946;SDS011;53853;51.982;5.928;2022-12-18T02:08:20;39.20;;;23.17;;
66946;SDS011;53853;51.982;5.928;2022-12-18T02:13:40;39.60;;;25.33;;
66946;SDS011;53853;51.982;5.928;2022-12-18T02:16:17;44.33;;;26.08;;
66946;SDS011;53853;51.982;5.928;2022-12-18T02:18:54;36.35;;;23.80;;
66946;SDS011;53853;51.982;5.928;2022-12-18T02:21:30;37.55;;;23.42;;
66946;SDS011;53853;51.982;5.928;2022-12-18T02:24:13;35.78;;;21.65;;
66946;SDS011;53853;51.982;5.928;2022-12-18T02:26:55;35.33;;;23.33;;
66946;SDS011;53853;51.982;5.928;2022-12-18T02:29:31;37.80;;;23.45;;
66946;SDS011;53853;51.982;5.928;2022-12-18T02:32:06;37.40;;;22.77;;
66946;SDS011;53853;51.982;5.928;2022-12-18T02:34:40;40.67;;;25.33;;
66946;SDS011;53853;51.982;5.928;2022-12-18T02:37:15;38.60;;;23.83;;
66946;SDS011;53853;51.982;5.928;2022-12-18T02:39:49;34.35;;;22.25;;
66946;SDS011;53853;51.982;5.928;2022-12-18T02:42:23;38.88;;;23.02;;
66946;SDS011;53853;51.982;5.928;2022-12-18T02:47:26;41.88;;;24.00;;
66946;SDS011;53853;51.982;5.928;2022-12-18T02:50:02;38.78;;;23.90;;
66946;SDS011;53853;51.982;5.928;2022-12-18T02:52:41;37.08;;;23.27;;
66946;SDS011;53853;51.982;5.928;2022-12-18T02:55:25;40.58;;;23.25;;
66946;SDS011;53853;51.982;5.928;2022-12-18T02:58:09;38.42;;;23.08;;
66946;SDS011;53853;51.982;5.928;2022-12-18T03:00:50;39.08;;;24.13;;
66946;SDS011;53853;51.982;5.928;2022-12-18T03:03:29;34.65;;;22.25;;
66946;SDS011;53853;51.982;5.928;2022-12-18T03:06:04;38.47;;;22.33;;
66946;SDS011;53853;51.982;5.928;2022-12-18T03:08:39;43.00;;;24.63;;
66946;SDS011;53853;51.982;5.928;2022-12-18T03:11:14;41.42;;;23.08;;
66946;SDS011;53853;51.982;5.928;2022-12-18T03:14:08;41.28;;;24.25;;
66946;SDS011;53853;51.982;5.928;2022-12-18T03:16:42;40.50;;;26.73;;
66946;SDS011;53853;51.982;5.928;2022-12-18T03:19:14;37.75;;;23.13;;
66946;SDS011;53853;51.982;5.928;2022-12-18T03:21:51;39.05;;;24.63;;
66946;SDS011;53853;51.982;5.928;2022-12-18T03:24:25;38.05;;;22.77;;
66946;SDS011;53853;51.982;5.928;2022-12-18T03:27:00;35.60;;;21.80;;
66946;SDS011;53853;51.982;5.928;2022-12-18T03:29:37;38.65;;;22.52;;
66946;SDS011;53853;51.982;5.928;2022-12-18T03:32:15;31.60;;;20.70;;
66946;SDS011;53853;51.982;5.928;2022-12-18T03:34:50;37.13;;;21.90;;
66946;SDS011;53853;51.982;5.928;2022-12-18T03:37:28;35.38;;;20.40;;
66946;SDS011;53853;51.982;5.928;2022-12-18T03:39:59;40.13;;;23.15;;
66946;SDS011;53853;51.982;5.928;2022-12-18T03:42:32;37.67;;;21.80;;
66946;SDS011;53853;51.982;5.928;2022-12-18T03:45:18;41.85;;;23.95;;
66946;SDS011;53853;51.982;5.928;2022-12-18T03:47:59;35.90;;;21.45;;
66946;SDS011;53853;51.982;5.928;2022-12-18T03:50:38;36.47;;;23.17;;
66946;SDS011;53853;51.982;5.928;2022-12-18T03:53:22;31.50;;;20.35;;
66946;SDS011;53853;51.982;5.928;2022-12-18T03:55:59;29.50;;;17.90;;
66946;SDS011;53853;51.982;5.928;2022-12-18T03:58:36;29.92;;;18.98;;
66946;SDS011;53853;51.982;5.928;2022-12-18T04:01:19;30.92;;;20.70;;
66946;SDS011;53853;51.982;5.928;2022-12-18T04:03:56;32.53;;;20.00;;
66946;SDS011;53853;51.982;5.928;2022-12-18T04:06:29;27.30;;;18.17;;
66946;SDS011;53853;51.982;5.928;2022-12-18T04:09:00;30.88;;;18.13;;
66946;SDS011;53853;51.982;5.928;2022-12-18T04:14:05;26.73;;;18.15;;
66946;SDS011;53853;51.982;5.928;2022-12-18T04:16:39;29.52;;;17.02;;
66946;SDS011;53853;51.982;5.928;2022-12-18T04:19:14;28.20;;;16.95;;
66946;SDS011;53853;51.982;5.928;2022-12-18T04:21:47;28.63;;;17.73;;
66946;SDS011;53853;51.982;5.928;2022-12-18T04:24:17;27.67;;;17.73;;
66946;SDS011;53853;51.982;5.928;2022-12-18T04:26:59;24.45;;;15.68;;
66946;SDS011;53853;51.982;5.928;2022-12-18T04:29:33;29.20;;;18.33;;
66946;SDS011;53853;51.982;5.928;2022-12-18T04:32:06;26.60;;;16.77;;
66946;SDS011;53853;51.982;5.928;2022-12-18T04:34:37;28.23;;;16.35;;
66946;SDS011;53853;51.982;5.928;2022-12-18T04:37:07;29.17;;;16.58;;
66946;SDS011;53853;51.982;5.928;2022-12-18T04:39:38;26.95;;;16.55;;
66946;SDS011;53853;51.982;5.928;2022-12-18T04:42:15;26.27;;;16.80;;
66946;SDS011;53853;51.982;5.928;2022-12-18T04:44:45;26.85;;;16.38;;
66946;SDS011;53853;51.982;5.928;2022-12-18T04:47:17;24.77;;;15.73;;
66946;SDS011;53853;51.982;5.928;2022-12-18T04:49:47;23.35;;;16.88;;
66946;SDS011;53853;51.982;5.928;2022-12-18T04:52:17;24.45;;;15.38;;
66946;SDS011;53853;51.982;5.928;2022-12-18T04:54:47;24.88;;;16.30;;
66946;SDS011;53853;51.982;5.928;2022-12-18T04:57:17;23.67;;;15.20;;
66946;SDS011;53853;51.982;5.928;2022-12-18T04:59:47;23.52;;;15.32;;
66946;SDS011;53853;51.982;5.928;2022-12-18T05:02:19;22.13;;;14.60;;
66946;SDS011;53853;51.982;5.928;2022-12-18T05:04:49;24.88;;;14.95;;
66946;SDS011;53853;51.982;5.928;2022-12-18T05:07:19;24.83;;;14.60;;
66946;SDS011;53853;51.982;5.928;2022-12-18T05:09:49;24.60;;;14.93;;
66946;SDS011;53853;51.982;5.928;2022-12-18T05:12:19;31.50;;;16.20;;
66946;SDS011;53853;51.982;5.928;2022-12-18T05:14:52;22.02;;;14.80;;
66946;SDS011;53853;51.982;5.928;2022-12-18T05:17:25;24.88;;;15.43;;
66946;SDS011;53853;51.982;5.928;2022-12-18T05:19:55;20.90;;;14.13;;
66946;SDS011;53853;51.982;5.928;2022-12-18T05:22:25;24.88;;;15.10;;
66946;SDS011;53853;51.982;5.928;2022-12-18T05:24:54;23.35;;;14.38;;
66946;SDS011;53853;51.982;5.928;2022-12-18T05:27:24;25.10;;;15.82;;
66946;SDS011;53853;51.982;5.928;2022-12-18T05:29:54;23.70;;;15.85;;
66946;SDS011;53853;51.982;5.928;2022-12-18T05:32:27;21.35;;;15.18;;
66946;SDS011;53853;51.982;5.928;2022-12-18T05:34:57;20.85;;;13.85;;
66946;SDS011;53853;51.982;5.928;2022-12-18T05:37:27;34.03;;;22.17;;
66946;SDS011;53853;51.982;5.928;2022-12-18T05:39:57;22.60;;;14.02;;
66946;SDS011;53853;51.982;5.928;2022-12-18T05:42:27;24.15;;;14.40;;
66946;SDS011;53853;51.982;5.928;2022-12-18T05:44:57;19.80;;;12.93;;
66946;SDS011;53853;51.982;5.928;2022-12-18T05:47:29;18.27;;;12.48;;
66946;SDS011;53853;51.982;5.928;2022-12-18T05:49:59;20.50;;;13.88;;
66946;SDS011;53853;51.982;5.928;2022-12-18T05:52:30;23.42;;;14.60;;
66946;SDS011;53853;51.982;5.928;2022-12-18T05:54:59;23.15;;;14.05;;
66946;SDS011;53853;51.982;5.928;2022-12-18T05:57:30;20.58;;;12.93;;
66946;SDS011;53853;51.982;5.928;2022-12-18T06:00:00;19.58;;;12.43;;
66946;SDS011;53853;51.982;5.928;2022-12-18T06:02:40;20.30;;;12.98;;
66946;SDS011;53853;51.982;5.928;2022-12-18T06:05:10;18.00;;;12.25;;
66946;SDS011;53853;51.982;5.928;2022-12-18T06:07:40;19.77;;;14.00;;
66946;SDS011;53853;51.982;5.928;2022-12-18T06:10:10;18.95;;;13.00;;
66946;SDS011;53853;51.982;5.928;2022-12-18T06:12:40;22.40;;;13.00;;
66946;SDS011;53853;51.982;5.928;2022-12-18T06:15:10;22.33;;;12.15;;
66946;SDS011;53853;51.982;5.928;2022-12-18T06:17:43;18.35;;;12.60;;
66946;SDS011;53853;51.982;5.928;2022-12-18T06:20:13;18.23;;;12.45;;
66946;SDS011;53853;51.982;5.928;2022-12-18T06:22:43;19.50;;;12.48;;
66946;SDS011;53853;51.982;5.928;2022-12-18T06:25:13;19.33;;;12.55;;
66946;SDS011;53853;51.982;5.928;2022-12-18T06:27:43;19.80;;;13.23;;
66946;SDS011;53853;51.982;5.928;2022-12-18T06:30:15;20.17;;;13.07;;
66946;SDS011;53853;51.982;5.928;2022-12-18T06:32:48;21.02;;;13.88;;
66946;SDS011;53853;51.982;5.928;2022-12-18T06:35:18;21.67;;;13.07;;
66946;SDS011;53853;51.982;5.928;2022-12-18T06:37:48;22.30;;;14.02;;
66946;SDS011;53853;51.982;5.928;2022-12-18T06:40:18;19.48;;;13.10;;
66946;SDS011;53853;51.982;5.928;2022-12-18T06:42:48;18.73;;;13.23;;
66946;SDS011;53853;51.982;5.928;2022-12-18T06:45:18;19.20;;;12.30;;
66946;SDS011;53853;51.982;5.928;2022-12-18T06:47:50;19.65;;;13.18;;
66946;SDS011;53853;51.982;5.928;2022-12-18T06:50:20;18.55;;;12.15;;
66946;SDS011;53853;51.982;5.928;2022-12-18T06:52:50;20.13;;;12.77;;
66946;SDS011;53853;51.982;5.928;2022-12-18T06:55:20;16.77;;;11.80;;
66946;SDS011;53853;51.982;5.928;2022-12-18T06:57:50;19.52;;;13.48;;
66946;SDS011;53853;51.982;5.928;2022-12-18T07:00:20;19.92;;;13.32;;
66946;SDS011;53853;51.982;5.928;2022-12-18T07:02:53;19.27;;;12.13;;
66946;SDS011;53853;51.982;5.928;2022-12-18T07:05:23;17.15;;;13.30;;
66946;SDS011;53853;51.982;5.928;2022-12-18T07:07:53;18.77;;;12.65;;
66946;SDS011;53853;51.982;5.928;2022-12-18T07:10:23;24.02;;;15.52;;
66946;SDS011;53853;51.982;5.928;2022-12-18T07:12:53;17.13;;;11.70;;
66946;SDS011;53853;51.982;5.928;2022-12-18T07:15:23;22.50;;;12.90;;
66946;SDS011;53853;51.982;5.928;2022-12-18T07:17:56;22.33;;;14.13;;
66946;SDS011;53853;51.982;5.928;2022-12-18T07:20:26;21.70;;;13.35;;
66946;SDS011;53853;51.982;5.928;2022-12-18T07:22:56;22.50;;;14.18;;
66946;SDS011;53853;51.982;5.928;2022-12-18T07:25:26;23.73;;;14.05;;
66946;SDS011;53853;51.982;5.928;2022-12-18T07:27:56;27.25;;;16.58;;
66946;SDS011;53853;51.982;5.928;2022-12-18T07:30:25;19.60;;;14.00;;
66946;SDS011;53853;51.982;5.928;2022-12-18T07:32:58;22.73;;;14.20;;
66946;SDS011;53853;51.982;5.928;2022-12-18T07:35:28;23.88;;;14.30;;
66946;SDS011;53853;51.982;5.928;2022-12-18T07:37:58;23.58;;;14.65;;
66946;SDS011;53853;51.982;5.928;2022-12-18T07:40:30;21.90;;;14.35;;
66946;SDS011;53853;51.982;5.928;2022-12-18T07:43:00;21.88;;;13.45;;
66946;SDS011;53853;51.982;5.928;2022-12-18T07:45:29;18.92;;;12.43;;
66946;SDS011;53853;51.982;5.928;2022-12-18T07:48:02;17.85;;;12.57;;
66946;SDS011;53853;51.982;5.928;2022-12-18T07:50:32;15.73;;;10.60;;
66946;SDS011;53853;51.982;5.928;2022-12-18T07:53:02;19.15;;;12.32;;
66946;SDS011;53853;51.982;5.928;2022-12-18T07:55:32;20.13;;;12.18;;
66946;SDS011;53853;51.982;5.928;2022-12-18T07:58:02;19.15;;;12.95;;
66946;SDS011;53853;51.982;5.928;2022-12-18T08:00:33;18.08;;;11.10;;
66946;SDS011;53853;51.982;5.928;2022-12-18T08:03:05;15.30;;;10.70;;
66946;SDS011;53853;51.982;5.928;2022-12-18T08:05:35;15.88;;;11.20;;
66946;SDS011;53853;51.982;5.928;2022-12-18T08:08:05;17.70;;;11.55;;
66946;SDS011;53853;51.982;5.928;2022-12-18T08:10:35;20.20;;;11.85;;
66946;SDS011;53853;51.982;5.928;2022-12-18T08:13:05;17.85;;;11.57;;
66946;SDS011;53853;51.982;5.928;2022-12-18T08:15:35;16.58;;;10.90;;
66946;SDS011;53853;51.982;5.928;2022-12-18T08:18:08;15.48;;;10.93;;
66946;SDS011;53853;51.982;5.928;2022-12-18T08:20:38;16.58;;;10.63;;
66946;SDS011;53853;51.982;5.928;2022-12-18T08:23:08;19.50;;;11.32;;
66946;SDS011;53853;51.982;5.928;2022-12-18T08:25:38;17.85;;;10.73;;
66946;SDS011;53853;51.982;5.928;2022-12-18T08:28:08;16.95;;;11.38;;
66946;SDS011;53853;51.982;5.928;2022-12-18T08:30:38;16.63;;;11.13;;
66946;SDS011;53853;51.982;5.928;2022-12-18T08:33:10;16.67;;;11.32;;
66946;SDS011;53853;51.982;5.928;2022-12-18T08:35:41;17.65;;;10.88;;
66946;SDS011;53853;51.982;5.928;2022-12-18T08:38:11;16.85;;;10.70;;
66946;SDS011;53853;51.982;5.928;2022-12-18T08:40:41;14.65;;;10.13;;
66946;SDS011;53853;51.982;5.928;2022-12-18T08:43:10;16.17;;;10.70;;
66946;SDS011;53853;51.982;5.928;2022-12-18T08:45:53;18.52;;;11.20;;
66946;SDS011;53853;51.982;5.928;2022-12-18T08:48:26;13.95;;;10.05;;
66946;SDS011;53853;51.982;5.928;2022-12-18T08:50:56;16.55;;;11.23;;
66946;SDS011;53853;51.982;5.928;2022-12-18T08:53:27;17.85;;;10.85;;
66946;SDS011;53853;51.982;5.928;2022-12-18T08:55:57;14.65;;;9.65;;
66946;SDS011;53853;51.982;5.928;2022-12-18T08:58:27;14.85;;;10.02;;
66946;SDS011;53853;51.982;5.928;2022-12-18T09:00:59;16.02;;;10.40;;
66946;SDS011;53853;51.982;5.928;2022-12-18T09:03:32;15.17;;;9.70;;
66946;SDS011;53853;51.982;5.928;2022-12-18T09:06:03;13.52;;;9.30;;
66946;SDS011;53853;51.982;5.928;2022-12-18T09:08:33;16.50;;;10.15;;
66946;SDS011;53853;51.982;5.928;2022-12-18T09:11:03;13.75;;;9.27;;
66946;SDS011;53853;51.982;5.928;2022-12-18T09:13:40;15.70;;;9.40;;
66946;SDS011;53853;51.982;5.928;2022-12-18T09:16:10;15.93;;;9.63;;
66946;SDS011;53853;51.982;5.928;2022-12-18T09:18:43;13.45;;;8.70;;
66946;SDS011;53853;51.982;5.928;2022-12-18T09:21:13;20.63;;;11.80;;
66946;SDS011;53853;51.982;5.928;2022-12-18T09:23:48;13.75;;;9.57;;
66946;SDS011;53853;51.982;5.928;2022-12-18T09:26:19;12.48;;;8.85;;
66946;SDS011;53853;51.982;5.928;2022-12-18T09:28:50;14.30;;;8.38;;
66946;SDS011;53853;51.982;5.928;2022-12-18T09:31:22;15.38;;;9.38;;
66946;SDS011;53853;51.982;5.928;2022-12-18T09:33:55;12.68;;;8.73;;
66946;SDS011;53853;51.982;5.928;2022-12-18T09:36:25;10.50;;;7.22;;
66946;SDS011;53853;51.982;5.928;2022-12-18T09:38:55;13.52;;;9.02;;
66946;SDS011;53853;51.982;5.928;2022-12-18T09:41:31;13.40;;;8.23;;
66946;SDS011;53853;51.982;5.928;2022-12-18T09:44:23;14.70;;;8.88;;
66946;SDS011;53853;51.982;5.928;2022-12-18T09:47:03;12.57;;;8.95;;
66946;SDS011;53853;51.982;5.928;2022-12-18T09:49:42;15.40;;;8.80;;
66946;SDS011;53853;51.982;5.928;2022-12-18T09:52:15;14.73;;;9.57;;
66946;SDS011;53853;51.982;5.928;2022-12-18T09:54:51;12.00;;;8.75;;
66946;SDS011;53853;51.982;5.928;2022-12-18T09:57:26;15.50;;;10.25;;
66946;SDS011;53853;51.982;5.928;2022-12-18T09:59:59;12.07;;;8.77;;
66946;SDS011;53853;51.982;5.928;2022-12-18T10:02:37;13.52;;;8.57;;
66946;SDS011;53853;51.982;5.928;2022-12-18T10:05:10;16.27;;;9.65;;
66946;SDS011;53853;51.982;5.928;2022-12-18T10:07:45;17.58;;;10.63;;
66946;SDS011;53853;51.982;5.928;2022-12-18T10:10:32;16.80;;;10.10;;
66946;SDS011;53853;51.982;5.928;2022-12-18T10:13:14;17.17;;;10.93;;
66946;SDS011;53853;51.982;5.928;2022-12-18T10:15:52;12.40;;;8.98;;
66946;SDS011;53853;51.982;5.928;2022-12-18T10:18:34;17.08;;;10.90;;
66946;SDS011;53853;51.982;5.928;2022-12-18T10:21:21;15.50;;;10.43;;
66946;SDS011;53853;51.982;5.928;2022-12-18T10:24:00;15.77;;;10.73;;
66946;SDS011;53853;51.982;5.928;2022-12-18T10:26:42;17.80;;;10.63;;
66946;SDS011;53853;51.982;5.928;2022-12-18T10:29:14;15.55;;;10.93;;
66946;SDS011;53853;51.982;5.928;2022-12-18T10:31:45;13.20;;;9.43;;
66946;SDS011;53853;51.982;5.928;2022-12-18T10:34:15;13.40;;;9.52;;
66946;SDS011;53853;51.982;5.928;2022-12-18T10:36:47;14.68;;;9.50;;
66946;SDS011;53853;51.982;5.928;2022-12-18T10:39:18;15.93;;;10.55;;
66946;SDS011;53853;51.982;5.928;2022-12-18T10:41:50;15.70;;;9.88;;
66946;SDS011;53853;51.982;5.928;2022-12-18T10:44:21;13.20;;;8.85;;
66946;SDS011;53853;51.982;5.928;2022-12-18T10:46:53;14.68;;;10.00;;
66946;SDS011;53853;51.982;5.928;2022-12-18T10:49:31;12.98;;;10.20;;
66946;SDS011;53853;51.982;5.928;2022-12-18T10:52:07;13.27;;;8.98;;
66946;SDS011;53853;51.982;5.928;2022-12-18T10:54:48;17.20;;;9.80;;
66946;SDS011;53853;51.982;5.928;2022-12-18T10:57:29;15.60;;;10.40;;
66946;SDS011;53853;51.982;5.928;2022-12-18T11:00:22;18.48;;;11.02;;
66946;SDS011;53853;51.982;5.928;2022-12-18T11:02:54;19.23;;;11.27;;
66946;SDS011;53853;51.982;5.928;2022-12-18T11:05:25;17.33;;;11.73;;
66946;SDS011;53853;51.982;5.928;2022-12-18T11:08:00;15.65;;;11.48;;
66946;SDS011;53853;51.982;5.928;2022-12-18T11:10:30;15.23;;;10.20;;
66946;SDS011;53853;51.982;5.928;2022-12-18T11:13:09;16.48;;;10.90;;
66946;SDS011;53853;51.982;5.928;2022-12-18T11:15:41;15.10;;;10.85;;
66946;SDS011;53853;51.982;5.928;2022-12-18T11:18:17;15.07;;;11.10;;
66946;SDS011;53853;51.982;5.928;2022-12-18T11:20:52;14.23;;;9.15;;
66946;SDS011;53853;51.982;5.928;2022-12-18T11:23:27;15.45;;;10.20;;
66946;SDS011;53853;51.982;5.928;2022-12-18T11:25:57;15.77;;;10.95;;
66946;SDS011;53853;51.982;5.928;2022-12-18T11:28:34;15.10;;;11.10;;
66946;SDS011;53853;51.982;5.928;2022-12-18T11:31:16;15.35;;;10.45;;
66946;SDS011;53853;51.982;5.928;2022-12-18T11:33:51;14.45;;;10.18;;
66946;SDS011;53853;51.982;5.928;2022-12-18T11:36:28;16.42;;;10.35;;
66946;SDS011;53853;51.982;5.928;2022-12-18T11:39:07;16.02;;;10.93;;
66946;SDS011;53853;51.982;5.928;2022-12-18T11:41:47;18.15;;;12.40;;
66946;SDS011;53853;51.982;5.928;2022-12-18T11:44:35;17.95;;;10.43;;
66946;SDS011;53853;51.982;5.928;2022-12-18T11:47:13;16.25;;;10.38;;
66946;SDS011;53853;51.982;5.928;2022-12-18T11:49:51;14.88;;;10.77;;
66946;SDS011;53853;51.982;5.928;2022-12-18T11:52:23;14.95;;;10.65;;
66946;SDS011;53853;51.982;5.928;2022-12-18T11:54:58;14.35;;;9.68;;
66946;SDS011;53853;51.982;5.928;2022-12-18T11:57:34;13.90;;;10.02;;
66946;SDS011;53853;51.982;5.928;2022-12-18T12:00:12;14.23;;;10.57;;
66946;SDS011;53853;51.982;5.928;2022-12-18T12:05:49;17.20;;;11.13;;
66946;SDS011;53853;51.982;5.928;2022-12-18T12:08:27;14.02;;;9.90;;
66946;SDS011;53853;51.982;5.928;2022-12-18T12:11:14;15.68;;;10.00;;
66946;SDS011;53853;51.982;5.928;2022-12-18T12:13:53;14.07;;;10.23;;
66946;SDS011;53853;51.982;5.928;2022-12-18T12:16:37;12.00;;;8.68;;
66946;SDS011;53853;51.982;5.928;2022-12-18T12:19:18;15.77;;;9.23;;
66946;SDS011;53853;51.982;5.928;2022-12-18T12:22:03;16.67;;;9.95;;
66946;SDS011;53853;51.982;5.928;2022-12-18T12:24:46;16.50;;;10.95;;
66946;SDS011;53853;51.982;5.928;2022-12-18T12:27:29;16.13;;;10.07;;
66946;SDS011;53853;51.982;5.928;2022-12-18T12:30:09;12.77;;;9.20;;
66946;SDS011;53853;51.982;5.928;2022-12-18T12:32:48;13.18;;;9.52;;
66946;SDS011;53853;51.982;5.928;2022-12-18T12:35:32;15.13;;;10.57;;
66946;SDS011;53853;51.982;5.928;2022-12-18T12:38:11;13.65;;;8.98;;
66946;SDS011;53853;51.982;5.928;2022-12-18T12:40:47;13.60;;;9.32;;
66946;SDS011;53853;51.982;5.928;2022-12-18T12:45:55;15.45;;;10.70;;
66946;SDS011;53853;51.982;5.928;2022-12-18T12:48:33;18.48;;;10.18;;
66946;SDS011;53853;51.982;5.928;2022-12-18T12:51:09;13.95;;;9.80;;
66946;SDS011;53853;51.982;5.928;2022-12-18T12:53:44;14.68;;;10.00;;
66946;SDS011;53853;51.982;5.928;2022-12-18T12:56:16;13.20;;;9.25;;
66946;SDS011;53853;51.982;5.928;2022-12-18T12:58:52;13.45;;;10.05;;
66946;SDS011;53853;51.982;5.928;2022-12-18T13:01:33;15.25;;;10.07;;
66946;SDS011;53853;51.982;5.928;2022-12-18T13:04:12;17.17;;;11.35;;
66946;SDS011;53853;51.982;5.928;2022-12-18T13:06:53;14.63;;;10.23;;
66946;SDS011;53853;51.982;5.928;2022-12-18T13:09:31;14.73;;;10.73;;
66946;SDS011;53853;51.982;5.928;2022-12-18T13:12:03;16.20;;;10.55;;
66946;SDS011;53853;51.982;5.928;2022-12-18T13:14:55;13.63;;;8.82;;
66946;SDS011;53853;51.982;5.928;2022-12-18T13:17:59;16.20;;;10.55;;
66946;SDS011;53853;51.982;5.928;2022-12-18T13:20:48;15.85;;;11.05;;
66946;SDS011;53853;51.982;5.928;2022-12-18T13:23:30;14.27;;;10.23;;
66946;SDS011;53853;51.982;5.928;2022-12-18T13:29:02;16.77;;;11.77;;
66946;SDS011;53853;51.982;5.928;2022-12-18T13:34:37;21.83;;;13.05;;
66946;SDS011;53853;51.982;5.928;2022-12-18T13:43:20;17.45;;;11.80;;
66946;SDS011;53853;51.982;5.928;2022-12-18T13:48:56;15.73;;;11.02;;
66946;SDS011;53853;51.982;5.928;2022-12-18T13:51:33;16.00;;;10.93;;
66946;SDS011;53853;51.982;5.928;2022-12-18T13:54:06;15.52;;;10.85;;
66946;SDS011;53853;51.982;5.928;2022-12-18T13:56:48;18.58;;;12.88;;
66946;SDS011;53853;51.982;5.928;2022-12-18T13:59:18;16.67;;;10.95;;
66946;SDS011;53853;51.982;5.928;2022-12-18T14:01:51;15.63;;;11.02;;
66946;SDS011;53853;51.982;5.928;2022-12-18T14:04:24;17.77;;;10.80;;
66946;SDS011;53853;51.982;5.928;2022-12-18T14:07:01;16.73;;;11.48;;
66946;SDS011;53853;51.982;5.928;2022-12-18T14:09:34;17.33;;;11.63;;
66946;SDS011;53853;51.982;5.928;2022-12-18T14:12:06;18.10;;;12.75;;
66946;SDS011;53853;51.982;5.928;2022-12-18T14:14:55;17.67;;;12.73;;
66946;SDS011;53853;51.982;5.928;2022-12-18T14:17:25;20.90;;;13.05;;
66946;SDS011;53853;51.982;5.928;2022-12-18T14:19:56;17.00;;;11.23;;
66946;SDS011;53853;51.982;5.928;2022-12-18T14:22:29;16.90;;;11.73;;
66946;SDS011;53853;51.982;5.928;2022-12-18T14:27:47;16.60;;;11.50;;
66946;SDS011;53853;51.982;5.928;2022-12-18T14:30:25;15.48;;;10.52;;
66946;SDS011;53853;51.982;5.928;2022-12-18T14:32:59;19.83;;;11.82;;
66946;SDS011;53853;51.982;5.928;2022-12-18T14:35:30;18.77;;;11.18;;
66946;SDS011;53853;51.982;5.928;2022-12-18T14:38:15;17.50;;;11.00;;
66946;SDS011;53853;51.982;5.928;2022-12-18T14:40:53;14.95;;;10.10;;
66946;SDS011;53853;51.982;5.928;2022-12-18T14:43:25;15.32;;;10.95;;
66946;SDS011;53853;51.982;5.928;2022-12-18T14:45:56;15.27;;;10.98;;
66946;SDS011;53853;51.982;5.928;2022-12-18T14:48:33;14.95;;;10.90;;
66946;SDS011;53853;51.982;5.928;2022-12-18T14:51:06;20.17;;;13.27;;
66946;SDS011;53853;51.982;5.928;2022-12-18T14:53:47;14.30;;;9.80;;
66946;SDS011;53853;51.982;5.928;2022-12-18T14:56:22;18.35;;;10.82;;
66946;SDS011;53853;51.982;5.928;2022-12-18T14:58:54;16.77;;;11.88;;
66946;SDS011;53853;51.982;5.928;2022-12-18T15:01:27;17.25;;;11.77;;
66946;SDS011;53853;51.982;5.928;2022-12-18T15:04:00;19.23;;;12.57;;
66946;SDS011;53853;51.982;5.928;2022-12-18T15:06:32;17.17;;;12.25;;
66946;SDS011;53853;51.982;5.928;2022-12-18T15:09:18;24.23;;;14.70;;
66946;SDS011;53853;51.982;5.928;2022-12-18T15:11:55;19.33;;;14.07;;
66946;SDS011;53853;51.982;5.928;2022-12-18T15:14:31;16.73;;;11.50;;
66946;SDS011;53853;51.982;5.928;2022-12-18T15:17:03;20.40;;;13.23;;
66946;SDS011;53853;51.982;5.928;2022-12-18T15:19:37;19.50;;;12.50;;
66946;SDS011;53853;51.982;5.928;2022-12-18T15:25:00;19.63;;;12.95;;
66946;SDS011;53853;51.982;5.928;2022-12-18T15:27:33;21.80;;;13.23;;
66946;SDS011;53853;51.982;5.928;2022-12-18T15:35:55;16.88;;;12.35;;
66946;SDS011;53853;51.982;5.928;2022-12-18T15:38:26;20.95;;;13.80;;
66946;SDS011;53853;51.982;5.928;2022-12-18T15:40:59;23.77;;;15.73;;
66946;SDS011;53853;51.982;5.928;2022-12-18T15:43:29;24.10;;;15.55;;